4B9 weather

Simsbury Airport
Simsbury, Connecticut, United States

Public forecast

Using degrees Fahrenheit for public forecast. Weather courtesy of forecast.io.

METAR (pilot weather report)

Closest report is Bradley International Airport, 4.4 nm (8.2 km) ENE. Retrieved 2019/07/21 02:51 UTC (35 minutes ago):

KBDL 210251Z 28006KT 10SM SCT065 SCT200 29/23 A2978 RMK AO2 LTG DSNT W AND NW SLP083 T02940233 53005

TAF (pilot weather forecast)

Forecast is more than 12 hours old.

Closest forecast is Bradley International Airport, 4.4 nm (8.2 km) ENE. Retrieved 2019/07/20 00:24 UTC (1 day ago):

TAF KBDL 202322Z 2100/2206 24005KT P6SM VCSH BKN080 FM210600 23004KT P6SM FEW150 FM211800 28010G17KT P6SM FEW100 FM212200 29009KT P6SM SCT200 FM220000 31006KT P6SM FEW250